sensor_id;sensor_type;location;lat;lon;timestamp;P1;durP1;ratioP1;P2;durP2;ratioP2
35667;SDS011;22158;59.280;17.806;2024-02-15T00:02:03;30.38;;;8.18;;
35667;SDS011;22158;59.280;17.806;2024-02-15T00:04:29;56.80;;;8.80;;
35667;SDS011;22158;59.280;17.806;2024-02-15T00:06:56;58.80;;;9.02;;
35667;SDS011;22158;59.280;17.806;2024-02-15T00:09:22;23.75;;;6.82;;
35667;SDS011;22158;59.280;17.806;2024-02-15T00:11:48;27.10;;;6.43;;
35667;SDS011;22158;59.280;17.806;2024-02-15T00:14:13;60.40;;;8.13;;
35667;SDS011;22158;59.280;17.806;2024-02-15T00:16:39;49.95;;;9.10;;
35667;SDS011;22158;59.280;17.806;2024-02-15T00:19:06;27.35;;;7.72;;
35667;SDS011;22158;59.280;17.806;2024-02-15T00:21:42;41.22;;;7.88;;
35667;SDS011;22158;59.280;17.806;2024-02-15T00:24:09;32.25;;;6.93;;
35667;SDS011;22158;59.280;17.806;2024-02-15T00:26:35;34.10;;;6.53;;
35667;SDS011;22158;59.280;17.806;2024-02-15T00:29:01;27.92;;;7.35;;
35667;SDS011;22158;59.280;17.806;2024-02-15T00:31:26;22.52;;;7.22;;
35667;SDS011;22158;59.280;17.806;2024-02-15T00:33:52;27.15;;;7.20;;
35667;SDS011;22158;59.280;17.806;2024-02-15T00:36:19;20.50;;;6.57;;
35667;SDS011;22158;59.280;17.806;2024-02-15T00:38:44;16.27;;;6.30;;
35667;SDS011;22158;59.280;17.806;2024-02-15T00:41:10;25.60;;;7.15;;
35667;SDS011;22158;59.280;17.806;2024-02-15T00:43:36;34.20;;;7.30;;
35667;SDS011;22158;59.280;17.806;2024-02-15T00:46:01;45.88;;;8.93;;
35667;SDS011;22158;59.280;17.806;2024-02-15T00:48:28;70.05;;;10.07;;
35667;SDS011;22158;59.280;17.806;2024-02-15T00:50:55;89.20;;;12.25;;
35667;SDS011;22158;59.280;17.806;2024-02-15T00:53:21;105.63;;;12.23;;
35667;SDS011;22158;59.280;17.806;2024-02-15T00:55:47;21.17;;;7.20;;
35667;SDS011;22158;59.280;17.806;2024-02-15T00:58:13;72.07;;;10.65;;
35667;SDS011;22158;59.280;17.806;2024-02-15T01:00:38;21.45;;;7.05;;
35667;SDS011;22158;59.280;17.806;2024-02-15T01:03:04;63.47;;;9.38;;
35667;SDS011;22158;59.280;17.806;2024-02-15T01:05:30;61.67;;;10.13;;
35667;SDS011;22158;59.280;17.806;2024-02-15T01:07:56;19.77;;;4.95;;
35667;SDS011;22158;59.280;17.806;2024-02-15T01:10:22;28.90;;;7.32;;
35667;SDS011;22158;59.280;17.806;2024-02-15T01:12:49;14.07;;;5.90;;
35667;SDS011;22158;59.280;17.806;2024-02-15T01:15:15;15.50;;;5.35;;
35667;SDS011;22158;59.280;17.806;2024-02-15T01:17:43;15.95;;;5.03;;
35667;SDS011;22158;59.280;17.806;2024-02-15T01:20:09;56.30;;;8.52;;
35667;SDS011;22158;59.280;17.806;2024-02-15T01:22:35;48.67;;;8.88;;
35667;SDS011;22158;59.280;17.806;2024-02-15T01:25:02;71.18;;;10.77;;
35667;SDS011;22158;59.280;17.806;2024-02-15T01:27:28;93.03;;;11.95;;
35667;SDS011;22158;59.280;17.806;2024-02-15T01:29:55;100.38;;;11.68;;
35667;SDS011;22158;59.280;17.806;2024-02-15T01:32:21;35.10;;;6.40;;
35667;SDS011;22158;59.280;17.806;2024-02-15T01:34:47;36.50;;;7.35;;
35667;SDS011;22158;59.280;17.806;2024-02-15T01:37:13;20.20;;;6.53;;
35667;SDS011;22158;59.280;17.806;2024-02-15T01:39:39;28.88;;;7.40;;
35667;SDS011;22158;59.280;17.806;2024-02-15T01:42:05;30.08;;;7.40;;
35667;SDS011;22158;59.280;17.806;2024-02-15T01:44:31;31.98;;;7.40;;
35667;SDS011;22158;59.280;17.806;2024-02-15T01:46:56;22.33;;;7.35;;
35667;SDS011;22158;59.280;17.806;2024-02-15T01:49:24;14.18;;;5.75;;
35667;SDS011;22158;59.280;17.806;2024-02-15T01:51:50;69.38;;;10.00;;
35667;SDS011;22158;59.280;17.806;2024-02-15T01:54:18;70.25;;;9.88;;
35667;SDS011;22158;59.280;17.806;2024-02-15T01:56:45;38.40;;;8.15;;
35667;SDS011;22158;59.280;17.806;2024-02-15T01:59:11;68.82;;;8.90;;
35667;SDS011;22158;59.280;17.806;2024-02-15T02:01:39;43.58;;;8.43;;
35667;SDS011;22158;59.280;17.806;2024-02-15T02:04:06;29.02;;;7.15;;
35667;SDS011;22158;59.280;17.806;2024-02-15T02:06:33;17.63;;;5.80;;
35667;SDS011;22158;59.280;17.806;2024-02-15T02:08:59;12.95;;;5.13;;
35667;SDS011;22158;59.280;17.806;2024-02-15T02:11:24;15.20;;;4.90;;
35667;SDS011;22158;59.280;17.806;2024-02-15T02:13:51;15.40;;;6.45;;
35667;SDS011;22158;59.280;17.806;2024-02-15T02:18:55;9.85;;;5.95;;
35667;SDS011;22158;59.280;17.806;2024-02-15T02:21:22;12.25;;;5.15;;
35667;SDS011;22158;59.280;17.806;2024-02-15T02:23:52;9.30;;;4.75;;
35667;SDS011;22158;59.280;17.806;2024-02-15T02:26:23;11.65;;;4.88;;
35667;SDS011;22158;59.280;17.806;2024-02-15T02:28:50;10.73;;;4.75;;
35667;SDS011;22158;59.280;17.806;2024-02-15T02:31:18;9.38;;;4.88;;
35667;SDS011;22158;59.280;17.806;2024-02-15T02:33:52;11.95;;;5.47;;
35667;SDS011;22158;59.280;17.806;2024-02-15T02:36:19;10.50;;;5.03;;
35667;SDS011;22158;59.280;17.806;2024-02-15T02:38:45;12.73;;;5.18;;
35667;SDS011;22158;59.280;17.806;2024-02-15T02:41:15;14.68;;;5.55;;
35667;SDS011;22158;59.280;17.806;2024-02-15T02:43:42;9.68;;;4.80;;
35667;SDS011;22158;59.280;17.806;2024-02-15T02:46:11;11.95;;;5.85;;
35667;SDS011;22158;59.280;17.806;2024-02-15T02:48:37;14.90;;;5.85;;
35667;SDS011;22158;59.280;17.806;2024-02-15T02:51:03;8.48;;;4.88;;
35667;SDS011;22158;59.280;17.806;2024-02-15T02:53:29;11.38;;;5.60;;
35667;SDS011;22158;59.280;17.806;2024-02-15T02:55:58;12.63;;;5.43;;
35667;SDS011;22158;59.280;17.806;2024-02-15T02:58:24;11.07;;;5.30;;
35667;SDS011;22158;59.280;17.806;2024-02-15T03:00:50;9.18;;;4.88;;
35667;SDS011;22158;59.280;17.806;2024-02-15T03:03:16;13.00;;;5.32;;
35667;SDS011;22158;59.280;17.806;2024-02-15T03:05:44;9.05;;;4.50;;
35667;SDS011;22158;59.280;17.806;2024-02-15T03:08:11;9.73;;;4.95;;
35667;SDS011;22158;59.280;17.806;2024-02-15T03:10:38;12.98;;;6.40;;
35667;SDS011;22158;59.280;17.806;2024-02-15T03:13:05;13.60;;;5.82;;
35667;SDS011;22158;59.280;17.806;2024-02-15T03:15:30;11.55;;;5.78;;
35667;SDS011;22158;59.280;17.806;2024-02-15T03:17:58;17.42;;;6.80;;
35667;SDS011;22158;59.280;17.806;2024-02-15T03:20:24;12.02;;;5.47;;
35667;SDS011;22158;59.280;17.806;2024-02-15T03:22:53;52.90;;;9.65;;
35667;SDS011;22158;59.280;17.806;2024-02-15T03:25:19;47.83;;;9.30;;
35667;SDS011;22158;59.280;17.806;2024-02-15T03:27:48;76.85;;;11.00;;
35667;SDS011;22158;59.280;17.806;2024-02-15T03:30:20;53.38;;;10.68;;
35667;SDS011;22158;59.280;17.806;2024-02-15T03:32:48;14.50;;;6.80;;
35667;SDS011;22158;59.280;17.806;2024-02-15T03:35:16;95.13;;;12.32;;
35667;SDS011;22158;59.280;17.806;2024-02-15T03:37:42;40.70;;;8.35;;
35667;SDS011;22158;59.280;17.806;2024-02-15T03:40:08;35.08;;;7.85;;
35667;SDS011;22158;59.280;17.806;2024-02-15T03:42:35;31.58;;;8.02;;
35667;SDS011;22158;59.280;17.806;2024-02-15T03:45:05;51.03;;;8.93;;
35667;SDS011;22158;59.280;17.806;2024-02-15T03:47:34;117.60;;;13.88;;
35667;SDS011;22158;59.280;17.806;2024-02-15T03:50:03;101.93;;;15.35;;
35667;SDS011;22158;59.280;17.806;2024-02-15T03:52:30;101.07;;;16.40;;
35667;SDS011;22158;59.280;17.806;2024-02-15T03:54:56;76.15;;;12.23;;
35667;SDS011;22158;59.280;17.806;2024-02-15T03:57:23;47.50;;;7.95;;
35667;SDS011;22158;59.280;17.806;2024-02-15T03:59:49;28.45;;;7.88;;
35667;SDS011;22158;59.280;17.806;2024-02-15T04:02:19;20.77;;;7.63;;
35667;SDS011;22158;59.280;17.806;2024-02-15T04:04:45;128.55;;;16.30;;
35667;SDS011;22158;59.280;17.806;2024-02-15T04:07:14;18.58;;;6.78;;
35667;SDS011;22158;59.280;17.806;2024-02-15T04:09:41;60.13;;;11.38;;
35667;SDS011;22158;59.280;17.806;2024-02-15T04:12:07;107.68;;;12.93;;
35667;SDS011;22158;59.280;17.806;2024-02-15T04:14:33;84.82;;;11.50;;
35667;SDS011;22158;59.280;17.806;2024-02-15T04:16:59;39.67;;;8.95;;
35667;SDS011;22158;59.280;17.806;2024-02-15T04:19:26;34.05;;;10.18;;
35667;SDS011;22158;59.280;17.806;2024-02-15T04:21:52;61.78;;;10.07;;
35667;SDS011;22158;59.280;17.806;2024-02-15T04:24:20;124.95;;;16.08;;
35667;SDS011;22158;59.280;17.806;2024-02-15T04:26:46;147.00;;;17.55;;
35667;SDS011;22158;59.280;17.806;2024-02-15T04:29:13;68.78;;;13.40;;
35667;SDS011;22158;59.280;17.806;2024-02-15T04:31:40;48.47;;;9.25;;
35667;SDS011;22158;59.280;17.806;2024-02-15T04:34:07;27.55;;;7.40;;
35667;SDS011;22158;59.280;17.806;2024-02-15T04:36:34;22.50;;;8.77;;
35667;SDS011;22158;59.280;17.806;2024-02-15T04:39:00;19.45;;;8.27;;
35667;SDS011;22158;59.280;17.806;2024-02-15T04:41:28;16.73;;;8.18;;
35667;SDS011;22158;59.280;17.806;2024-02-15T04:43:54;21.73;;;6.63;;
35667;SDS011;22158;59.280;17.806;2024-02-15T04:46:20;18.15;;;7.10;;
35667;SDS011;22158;59.280;17.806;2024-02-15T04:48:46;37.83;;;8.18;;
35667;SDS011;22158;59.280;17.806;2024-02-15T04:51:15;48.35;;;10.68;;
35667;SDS011;22158;59.280;17.806;2024-02-15T04:53:42;60.17;;;9.60;;
35667;SDS011;22158;59.280;17.806;2024-02-15T04:56:08;14.88;;;6.78;;
35667;SDS011;22158;59.280;17.806;2024-02-15T04:58:42;13.38;;;6.03;;
35667;SDS011;22158;59.280;17.806;2024-02-15T05:01:13;10.65;;;5.82;;
35667;SDS011;22158;59.280;17.806;2024-02-15T05:03:39;15.02;;;6.40;;
35667;SDS011;22158;59.280;17.806;2024-02-15T05:06:05;15.57;;;6.13;;
35667;SDS011;22158;59.280;17.806;2024-02-15T05:08:33;13.63;;;6.20;;
35667;SDS011;22158;59.280;17.806;2024-02-15T05:11:01;14.50;;;6.68;;
35667;SDS011;22158;59.280;17.806;2024-02-15T05:13:29;13.93;;;5.72;;
35667;SDS011;22158;59.280;17.806;2024-02-15T05:15:55;10.90;;;5.93;;
35667;SDS011;22158;59.280;17.806;2024-02-15T05:18:21;12.45;;;6.15;;
35667;SDS011;22158;59.280;17.806;2024-02-15T05:20:46;17.27;;;7.30;;
35667;SDS011;22158;59.280;17.806;2024-02-15T05:23:12;15.50;;;7.45;;
35667;SDS011;22158;59.280;17.806;2024-02-15T05:25:38;12.43;;;6.43;;
35667;SDS011;22158;59.280;17.806;2024-02-15T05:28:04;11.20;;;6.78;;
35667;SDS011;22158;59.280;17.806;2024-02-15T05:30:33;11.00;;;5.78;;
35667;SDS011;22158;59.280;17.806;2024-02-15T05:32:59;13.02;;;5.22;;
35667;SDS011;22158;59.280;17.806;2024-02-15T05:35:25;10.80;;;6.30;;
35667;SDS011;22158;59.280;17.806;2024-02-15T05:37:52;8.60;;;4.68;;
35667;SDS011;22158;59.280;17.806;2024-02-15T05:40:18;7.95;;;4.68;;
35667;SDS011;22158;59.280;17.806;2024-02-15T05:42:44;6.53;;;4.18;;
35667;SDS011;22158;59.280;17.806;2024-02-15T05:47:54;7.30;;;4.50;;
35667;SDS011;22158;59.280;17.806;2024-02-15T05:50:20;9.23;;;5.00;;
35667;SDS011;22158;59.280;17.806;2024-02-15T05:52:46;8.40;;;4.50;;
35667;SDS011;22158;59.280;17.806;2024-02-15T05:55:12;9.23;;;4.88;;
35667;SDS011;22158;59.280;17.806;2024-02-15T05:57:42;9.52;;;4.93;;
35667;SDS011;22158;59.280;17.806;2024-02-15T06:00:08;8.13;;;4.53;;
35667;SDS011;22158;59.280;17.806;2024-02-15T06:02:34;7.63;;;4.47;;
35667;SDS011;22158;59.280;17.806;2024-02-15T06:05:00;8.15;;;4.80;;
35667;SDS011;22158;59.280;17.806;2024-02-15T06:07:29;10.10;;;5.10;;
35667;SDS011;22158;59.280;17.806;2024-02-15T06:09:56;6.85;;;4.57;;
35667;SDS011;22158;59.280;17.806;2024-02-15T06:12:28;8.55;;;5.53;;
35667;SDS011;22158;59.280;17.806;2024-02-15T06:14:54;9.52;;;5.03;;
35667;SDS011;22158;59.280;17.806;2024-02-15T06:17:20;11.45;;;6.05;;
35667;SDS011;22158;59.280;17.806;2024-02-15T06:19:46;10.80;;;5.63;;
35667;SDS011;22158;59.280;17.806;2024-02-15T06:22:12;7.22;;;4.30;;
35667;SDS011;22158;59.280;17.806;2024-02-15T06:24:37;12.25;;;5.47;;
35667;SDS011;22158;59.280;17.806;2024-02-15T06:27:04;8.93;;;5.38;;
35667;SDS011;22158;59.280;17.806;2024-02-15T06:29:30;12.43;;;5.43;;
35667;SDS011;22158;59.280;17.806;2024-02-15T06:32:15;12.98;;;5.95;;
35667;SDS011;22158;59.280;17.806;2024-02-15T06:34:59;9.57;;;5.20;;
35667;SDS011;22158;59.280;17.806;2024-02-15T06:37:43;12.73;;;6.15;;
35667;SDS011;22158;59.280;17.806;2024-02-15T06:40:27;13.77;;;5.80;;
35667;SDS011;22158;59.280;17.806;2024-02-15T06:42:53;11.43;;;5.22;;
35667;SDS011;22158;59.280;17.806;2024-02-15T06:45:19;21.08;;;6.50;;
35667;SDS011;22158;59.280;17.806;2024-02-15T06:47:45;14.38;;;5.95;;
35667;SDS011;22158;59.280;17.806;2024-02-15T06:50:14;17.33;;;6.63;;
35667;SDS011;22158;59.280;17.806;2024-02-15T06:52:43;17.55;;;6.93;;
35667;SDS011;22158;59.280;17.806;2024-02-15T06:55:08;15.00;;;6.07;;
35667;SDS011;22158;59.280;17.806;2024-02-15T06:57:37;15.77;;;6.07;;
35667;SDS011;22158;59.280;17.806;2024-02-15T07:00:05;14.45;;;6.18;;
35667;SDS011;22158;59.280;17.806;2024-02-15T07:02:39;14.65;;;6.75;;
35667;SDS011;22158;59.280;17.806;2024-02-15T07:05:05;26.08;;;6.72;;
35667;SDS011;22158;59.280;17.806;2024-02-15T07:07:31;35.20;;;8.45;;
35667;SDS011;22158;59.280;17.806;2024-02-15T07:09:59;38.85;;;8.02;;
35667;SDS011;22158;59.280;17.806;2024-02-15T07:12:27;45.03;;;8.95;;
35667;SDS011;22158;59.280;17.806;2024-02-15T07:14:53;13.80;;;6.28;;
35667;SDS011;22158;59.280;17.806;2024-02-15T07:17:19;31.55;;;8.60;;
35667;SDS011;22158;59.280;17.806;2024-02-15T07:19:45;41.15;;;8.32;;
35667;SDS011;22158;59.280;17.806;2024-02-15T07:22:14;32.90;;;7.97;;
35667;SDS011;22158;59.280;17.806;2024-02-15T07:24:40;36.10;;;7.68;;
35667;SDS011;22158;59.280;17.806;2024-02-15T07:27:06;40.92;;;9.60;;
35667;SDS011;22158;59.280;17.806;2024-02-15T07:29:32;47.03;;;8.35;;
35667;SDS011;22158;59.280;17.806;2024-02-15T07:32:02;33.88;;;7.47;;
35667;SDS011;22158;59.280;17.806;2024-02-15T07:34:29;89.57;;;10.95;;
35667;SDS011;22158;59.280;17.806;2024-02-15T07:36:55;27.45;;;8.05;;
35667;SDS011;22158;59.280;17.806;2024-02-15T07:39:23;35.78;;;7.07;;
35667;SDS011;22158;59.280;17.806;2024-02-15T07:41:53;87.88;;;14.95;;
35667;SDS011;22158;59.280;17.806;2024-02-15T07:44:30;42.90;;;8.52;;
35667;SDS011;22158;59.280;17.806;2024-02-15T07:46:57;33.65;;;8.57;;
35667;SDS011;22158;59.280;17.806;2024-02-15T07:49:25;33.47;;;8.98;;
35667;SDS011;22158;59.280;17.806;2024-02-15T07:51:51;42.58;;;9.68;;
35667;SDS011;22158;59.280;17.806;2024-02-15T07:54:20;33.55;;;8.27;;
35667;SDS011;22158;59.280;17.806;2024-02-15T07:56:46;40.33;;;8.77;;
35667;SDS011;22158;59.280;17.806;2024-02-15T07:59:13;46.85;;;9.00;;
35667;SDS011;22158;59.280;17.806;2024-02-15T08:01:41;39.55;;;7.38;;
35667;SDS011;22158;59.280;17.806;2024-02-15T08:04:08;39.03;;;7.13;;
35667;SDS011;22158;59.280;17.806;2024-02-15T08:06:34;29.20;;;6.80;;
35667;SDS011;22158;59.280;17.806;2024-02-15T08:09:02;34.83;;;6.55;;
35667;SDS011;22158;59.280;17.806;2024-02-15T08:11:31;17.98;;;7.20;;
35667;SDS011;22158;59.280;17.806;2024-02-15T08:13:57;21.25;;;7.43;;
35667;SDS011;22158;59.280;17.806;2024-02-15T08:16:24;19.48;;;6.85;;
35667;SDS011;22158;59.280;17.806;2024-02-15T08:18:54;20.95;;;6.05;;
35667;SDS011;22158;59.280;17.806;2024-02-15T08:23:57;21.42;;;7.35;;
35667;SDS011;22158;59.280;17.806;2024-02-15T08:26:33;26.85;;;6.85;;
35667;SDS011;22158;59.280;17.806;2024-02-15T08:29:03;28.02;;;7.50;;
35667;SDS011;22158;59.280;17.806;2024-02-15T08:31:29;17.27;;;6.15;;
35667;SDS011;22158;59.280;17.806;2024-02-15T08:34:01;18.67;;;6.60;;
35667;SDS011;22158;59.280;17.806;2024-02-15T08:36:30;26.52;;;8.35;;
35667;SDS011;22158;59.280;17.806;2024-02-15T08:38:56;15.38;;;7.38;;
35667;SDS011;22158;59.280;17.806;2024-02-15T08:41:21;20.58;;;6.78;;
35667;SDS011;22158;59.280;17.806;2024-02-15T08:43:52;18.50;;;7.22;;
35667;SDS011;22158;59.280;17.806;2024-02-15T08:46:18;20.45;;;7.25;;
35667;SDS011;22158;59.280;17.806;2024-02-15T08:48:44;18.08;;;7.65;;
35667;SDS011;22158;59.280;17.806;2024-02-15T08:51:13;20.52;;;6.85;;
35667;SDS011;22158;59.280;17.806;2024-02-15T08:53:39;24.42;;;7.50;;
35667;SDS011;22158;59.280;17.806;2024-02-15T08:56:04;19.40;;;8.35;;
35667;SDS011;22158;59.280;17.806;2024-02-15T08:58:31;20.52;;;8.13;;
35667;SDS011;22158;59.280;17.806;2024-02-15T09:00:57;18.10;;;8.38;;
35667;SDS011;22158;59.280;17.806;2024-02-15T09:03:23;17.83;;;7.25;;
35667;SDS011;22158;59.280;17.806;2024-02-15T09:05:49;17.23;;;7.75;;
35667;SDS011;22158;59.280;17.806;2024-02-15T09:08:15;19.35;;;8.02;;
35667;SDS011;22158;59.280;17.806;2024-02-15T09:10:45;22.40;;;8.38;;
35667;SDS011;22158;59.280;17.806;2024-02-15T09:13:14;18.02;;;7.55;;
35667;SDS011;22158;59.280;17.806;2024-02-15T09:15:40;18.27;;;7.97;;
35667;SDS011;22158;59.280;17.806;2024-02-15T09:18:07;14.15;;;6.97;;
35667;SDS011;22158;59.280;17.806;2024-02-15T09:20:36;19.52;;;8.95;;
35667;SDS011;22158;59.280;17.806;2024-02-15T09:23:03;19.73;;;9.20;;
35667;SDS011;22158;59.280;17.806;2024-02-15T09:25:37;16.75;;;7.93;;
35667;SDS011;22158;59.280;17.806;2024-02-15T09:28:03;17.08;;;8.60;;
35667;SDS011;22158;59.280;17.806;2024-02-15T09:30:29;16.05;;;8.07;;
35667;SDS011;22158;59.280;17.806;2024-02-15T09:32:56;17.70;;;8.55;;
35667;SDS011;22158;59.280;17.806;2024-02-15T09:35:22;21.23;;;9.85;;
35667;SDS011;22158;59.280;17.806;2024-02-15T09:37:48;11.88;;;7.45;;
35667;SDS011;22158;59.280;17.806;2024-02-15T09:40:15;16.92;;;9.15;;
35667;SDS011;22158;59.280;17.806;2024-02-15T09:42:44;15.35;;;8.38;;
35667;SDS011;22158;59.280;17.806;2024-02-15T09:45:12;15.65;;;8.05;;
35667;SDS011;22158;59.280;17.806;2024-02-15T09:47:39;16.35;;;7.68;;
35667;SDS011;22158;59.280;17.806;2024-02-15T09:50:12;18.35;;;8.60;;
35667;SDS011;22158;59.280;17.806;2024-02-15T09:52:39;17.65;;;8.65;;
35667;SDS011;22158;59.280;17.806;2024-02-15T09:55:09;13.40;;;7.38;;
35667;SDS011;22158;59.280;17.806;2024-02-15T09:57:40;17.05;;;8.13;;
35667;SDS011;22158;59.280;17.806;2024-02-15T10:00:08;18.48;;;8.35;;
35667;SDS011;22158;59.280;17.806;2024-02-15T10:02:38;17.27;;;9.13;;
35667;SDS011;22158;59.280;17.806;2024-02-15T10:05:07;17.30;;;9.63;;
35667;SDS011;22158;59.280;17.806;2024-02-15T10:07:42;15.10;;;8.85;;
35667;SDS011;22158;59.280;17.806;2024-02-15T10:10:15;16.30;;;8.55;;
35667;SDS011;22158;59.280;17.806;2024-02-15T10:12:54;17.63;;;9.52;;
35667;SDS011;22158;59.280;17.806;2024-02-15T10:18:02;25.38;;;10.55;;
35667;SDS011;22158;59.280;17.806;2024-02-15T10:20:40;16.23;;;8.70;;
35667;SDS011;22158;59.280;17.806;2024-02-15T10:25:44;17.73;;;8.60;;
35667;SDS011;22158;59.280;17.806;2024-02-15T10:28:10;13.50;;;8.35;;
35667;SDS011;22158;59.280;17.806;2024-02-15T10:30:37;17.92;;;9.00;;
35667;SDS011;22158;59.280;17.806;2024-02-15T10:33:05;14.77;;;9.00;;
35667;SDS011;22158;59.280;17.806;2024-02-15T10:35:32;22.95;;;10.55;;
35667;SDS011;22158;59.280;17.806;2024-02-15T10:38:10;18.20;;;9.02;;
35667;SDS011;22158;59.280;17.806;2024-02-15T10:40:38;20.60;;;8.93;;
35667;SDS011;22158;59.280;17.806;2024-02-15T10:43:06;19.45;;;9.80;;
35667;SDS011;22158;59.280;17.806;2024-02-15T10:45:34;23.95;;;11.43;;
35667;SDS011;22158;59.280;17.806;2024-02-15T10:48:02;23.20;;;11.02;;
35667;SDS011;22158;59.280;17.806;2024-02-15T10:50:30;20.45;;;11.18;;
35667;SDS011;22158;59.280;17.806;2024-02-15T10:52:56;22.77;;;10.85;;
35667;SDS011;22158;59.280;17.806;2024-02-15T10:55:29;18.98;;;11.18;;
35667;SDS011;22158;59.280;17.806;2024-02-15T10:58:06;22.50;;;11.15;;
35667;SDS011;22158;59.280;17.806;2024-02-15T11:00:33;16.17;;;9.70;;
35667;SDS011;22158;59.280;17.806;2024-02-15T11:05:34;20.15;;;10.30;;
35667;SDS011;22158;59.280;17.806;2024-02-15T11:08:03;21.02;;;10.07;;
35667;SDS011;22158;59.280;17.806;2024-02-15T11:10:31;19.30;;;10.07;;
35667;SDS011;22158;59.280;17.806;2024-02-15T11:12:58;20.95;;;12.10;;
35667;SDS011;22158;59.280;17.806;2024-02-15T11:18:11;25.75;;;12.25;;
35667;SDS011;22158;59.280;17.806;2024-02-15T11:23:11;21.85;;;12.05;;
35667;SDS011;22158;59.280;17.806;2024-02-15T11:25:37;21.52;;;11.60;;
35667;SDS011;22158;59.280;17.806;2024-02-15T11:30:50;23.08;;;10.48;;
35667;SDS011;22158;59.280;17.806;2024-02-15T11:41:10;21.05;;;10.88;;
35667;SDS011;22158;59.280;17.806;2024-02-15T11:46:14;23.08;;;11.10;;
35667;SDS011;22158;59.280;17.806;2024-02-15T11:48:47;21.02;;;11.23;;
35667;SDS011;22158;59.280;17.806;2024-02-15T11:51:29;22.13;;;10.38;;
35667;SDS011;22158;59.280;17.806;2024-02-15T11:54:12;18.48;;;10.52;;
35667;SDS011;22158;59.280;17.806;2024-02-15T11:59:13;29.35;;;10.05;;
35667;SDS011;22158;59.280;17.806;2024-02-15T12:01:54;20.23;;;9.45;;
35667;SDS011;22158;59.280;17.806;2024-02-15T12:04:42;19.70;;;8.80;;
35667;SDS011;22158;59.280;17.806;2024-02-15T12:07:31;14.55;;;8.18;;
35667;SDS011;22158;59.280;17.806;2024-02-15T12:10:19;16.15;;;8.60;;
35667;SDS011;22158;59.280;17.806;2024-02-15T12:13:04;18.95;;;8.50;;
35667;SDS011;22158;59.280;17.806;2024-02-15T12:15:56;20.95;;;8.70;;
35667;SDS011;22158;59.280;17.806;2024-02-15T12:18:43;20.38;;;9.07;;
35667;SDS011;22158;59.280;17.806;2024-02-15T12:21:12;19.77;;;9.35;;
35667;SDS011;22158;59.280;17.806;2024-02-15T12:23:41;21.88;;;10.25;;
35667;SDS011;22158;59.280;17.806;2024-02-15T12:26:07;19.83;;;10.00;;
35667;SDS011;22158;59.280;17.806;2024-02-15T12:28:33;30.92;;;10.13;;
35667;SDS011;22158;59.280;17.806;2024-02-15T12:31:02;32.00;;;11.88;;
35667;SDS011;22158;59.280;17.806;2024-02-15T12:33:31;21.15;;;9.95;;
35667;SDS011;22158;59.280;17.806;2024-02-15T12:36:04;28.35;;;10.52;;
35667;SDS011;22158;59.280;17.806;2024-02-15T12:38:30;31.25;;;10.73;;
35667;SDS011;22158;59.280;17.806;2024-02-15T12:40:56;29.55;;;11.43;;
35667;SDS011;22158;59.280;17.806;2024-02-15T12:43:22;25.67;;;10.80;;
35667;SDS011;22158;59.280;17.806;2024-02-15T12:45:48;26.23;;;12.10;;
35667;SDS011;22158;59.280;17.806;2024-02-15T12:48:13;50.15;;;12.38;;
35667;SDS011;22158;59.280;17.806;2024-02-15T12:50:40;24.75;;;10.13;;
35667;SDS011;22158;59.280;17.806;2024-02-15T12:53:06;27.52;;;11.65;;
35667;SDS011;22158;59.280;17.806;2024-02-15T12:55:33;33.38;;;11.75;;
35667;SDS011;22158;59.280;17.806;2024-02-15T12:58:03;39.25;;;13.23;;
35667;SDS011;22158;59.280;17.806;2024-02-15T13:00:33;33.58;;;15.00;;
35667;SDS011;22158;59.280;17.806;2024-02-15T13:03:04;27.23;;;12.45;;
35667;SDS011;22158;59.280;17.806;2024-02-15T13:05:33;22.50;;;10.52;;
35667;SDS011;22158;59.280;17.806;2024-02-15T13:08:01;33.72;;;12.48;;
35667;SDS011;22158;59.280;17.806;2024-02-15T13:10:28;23.88;;;10.82;;
35667;SDS011;22158;59.280;17.806;2024-02-15T13:12:54;32.30;;;10.75;;
35667;SDS011;22158;59.280;17.806;2024-02-15T13:15:21;23.95;;;10.88;;
35667;SDS011;22158;59.280;17.806;2024-02-15T13:17:52;19.27;;;9.30;;
35667;SDS011;22158;59.280;17.806;2024-02-15T13:20:22;25.90;;;11.45;;
35667;SDS011;22158;59.280;17.806;2024-02-15T13:23:04;19.45;;;9.73;;
35667;SDS011;22158;59.280;17.806;2024-02-15T13:25:37;20.90;;;9.10;;
35667;SDS011;22158;59.280;17.806;2024-02-15T13:28:04;27.23;;;11.90;;
35667;SDS011;22158;59.280;17.806;2024-02-15T13:30:31;29.00;;;10.57;;
35667;SDS011;22158;59.280;17.806;2024-02-15T13:32:57;43.15;;;12.88;;
35667;SDS011;22158;59.280;17.806;2024-02-15T13:35:23;27.20;;;11.50;;
35667;SDS011;22158;59.280;17.806;2024-02-15T13:37:49;32.45;;;12.23;;
35667;SDS011;22158;59.280;17.806;2024-02-15T13:40:25;32.42;;;12.35;;
35667;SDS011;22158;59.280;17.806;2024-02-15T13:42:53;37.95;;;12.00;;
35667;SDS011;22158;59.280;17.806;2024-02-15T13:47:57;25.83;;;11.50;;
35667;SDS011;22158;59.280;17.806;2024-02-15T13:50:25;37.40;;;12.15;;
35667;SDS011;22158;59.280;17.806;2024-02-15T13:52:53;34.58;;;12.63;;
35667;SDS011;22158;59.280;17.806;2024-02-15T13:55:19;38.47;;;13.57;;
35667;SDS011;22158;59.280;17.806;2024-02-15T13:57:47;58.83;;;13.38;;
35667;SDS011;22158;59.280;17.806;2024-02-15T14:00:14;43.45;;;13.05;;
35667;SDS011;22158;59.280;17.806;2024-02-15T14:02:47;52.55;;;13.65;;
35667;SDS011;22158;59.280;17.806;2024-02-15T14:05:13;40.30;;;12.50;;
35667;SDS011;22158;59.280;17.806;2024-02-15T14:07:39;41.92;;;13.85;;
35667;SDS011;22158;59.280;17.806;2024-02-15T14:10:05;49.80;;;13.68;;
35667;SDS011;22158;59.280;17.806;2024-02-15T14:12:32;44.78;;;14.20;;
35667;SDS011;22158;59.280;17.806;2024-02-15T14:14:59;37.88;;;15.32;;
35667;SDS011;22158;59.280;17.806;2024-02-15T14:17:25;44.78;;;12.90;;
35667;SDS011;22158;59.280;17.806;2024-02-15T14:19:50;31.33;;;13.68;;
35667;SDS011;22158;59.280;17.806;2024-02-15T14:22:16;29.65;;;14.32;;
35667;SDS011;22158;59.280;17.806;2024-02-15T14:24:42;40.92;;;15.13;;
35667;SDS011;22158;59.280;17.806;2024-02-15T14:27:09;36.35;;;14.05;;
35667;SDS011;22158;59.280;17.806;2024-02-15T14:29:36;66.55;;;16.05;;
35667;SDS011;22158;59.280;17.806;2024-02-15T14:32:24;50.28;;;15.90;;
35667;SDS011;22158;59.280;17.806;2024-02-15T14:35:08;53.33;;;13.93;;
35667;SDS011;22158;59.280;17.806;2024-02-15T14:37:34;40.40;;;13.38;;
35667;SDS011;22158;59.280;17.806;2024-02-15T14:40:00;37.55;;;12.70;;
35667;SDS011;22158;59.280;17.806;2024-02-15T14:42:25;33.17;;;12.70;;
35667;SDS011;22158;59.280;17.806;2024-02-15T14:44:51;27.98;;;12.38;;
35667;SDS011;22158;59.280;17.806;2024-02-15T14:47:17;40.13;;;12.73;;
35667;SDS011;22158;59.280;17.806;2024-02-15T14:49:43;40.38;;;14.00;;
35667;SDS011;22158;59.280;17.806;2024-02-15T14:52:09;41.80;;;12.57;;
35667;SDS011;22158;59.280;17.806;2024-02-15T14:54:34;48.22;;;14.70;;
35667;SDS011;22158;59.280;17.806;2024-02-15T14:57:01;30.00;;;12.35;;
35667;SDS011;22158;59.280;17.806;2024-02-15T14:59:27;32.20;;;13.02;;
35667;SDS011;22158;59.280;17.806;2024-02-15T15:01:52;27.33;;;12.80;;
35667;SDS011;22158;59.280;17.806;2024-02-15T15:04:18;21.80;;;10.90;;